sensor_id;sensor_type;location;lat;lon;timestamp;P1;durP1;ratioP1;P2;durP2;ratioP2
7074;SDS011;3578;51.568;6.932;2023-10-08T00:02:22;10.90;;;5.77;;
7074;SDS011;3578;51.568;6.932;2023-10-08T00:04:51;8.27;;;5.70;;
7074;SDS011;3578;51.568;6.932;2023-10-08T00:07:19;9.97;;;5.00;;
7074;SDS011;3578;51.568;6.932;2023-10-08T00:09:47;9.13;;;4.97;;
7074;SDS011;3578;51.568;6.932;2023-10-08T00:12:16;12.57;;;6.40;;
7074;SDS011;3578;51.568;6.932;2023-10-08T00:14:45;12.77;;;5.57;;
7074;SDS011;3578;51.568;6.932;2023-10-08T00:17:15;7.07;;;4.57;;
7074;SDS011;3578;51.568;6.932;2023-10-08T00:19:43;10.70;;;5.40;;
7074;SDS011;3578;51.568;6.932;2023-10-08T00:22:10;6.03;;;4.87;;
7074;SDS011;3578;51.568;6.932;2023-10-08T00:24:39;11.93;;;5.27;;
7074;SDS011;3578;51.568;6.932;2023-10-08T00:27:07;8.97;;;6.00;;
7074;SDS011;3578;51.568;6.932;2023-10-08T00:29:35;7.07;;;4.97;;
7074;SDS011;3578;51.568;6.932;2023-10-08T00:32:06;8.13;;;4.80;;
7074;SDS011;3578;51.568;6.932;2023-10-08T00:34:40;11.30;;;5.63;;
7074;SDS011;3578;51.568;6.932;2023-10-08T00:37:09;8.20;;;5.43;;
7074;SDS011;3578;51.568;6.932;2023-10-08T00:39:39;8.00;;;5.13;;
7074;SDS011;3578;51.568;6.932;2023-10-08T00:42:07;6.90;;;5.07;;
7074;SDS011;3578;51.568;6.932;2023-10-08T00:44:34;11.70;;;5.53;;
7074;SDS011;3578;51.568;6.932;2023-10-08T00:47:14;9.03;;;5.03;;
7074;SDS011;3578;51.568;6.932;2023-10-08T00:49:43;7.37;;;5.30;;
7074;SDS011;3578;51.568;6.932;2023-10-08T00:52:29;6.90;;;4.97;;
7074;SDS011;3578;51.568;6.932;2023-10-08T00:55:05;6.80;;;5.17;;
7074;SDS011;3578;51.568;6.932;2023-10-08T00:57:45;8.47;;;5.53;;
7074;SDS011;3578;51.568;6.932;2023-10-08T01:00:18;8.70;;;5.63;;
7074;SDS011;3578;51.568;6.932;2023-10-08T01:02:49;12.80;;;5.30;;
7074;SDS011;3578;51.568;6.932;2023-10-08T01:05:25;9.80;;;5.73;;
7074;SDS011;3578;51.568;6.932;2023-10-08T01:08:07;10.30;;;5.50;;
7074;SDS011;3578;51.568;6.932;2023-10-08T01:10:37;7.37;;;5.03;;
7074;SDS011;3578;51.568;6.932;2023-10-08T01:13:08;9.80;;;5.60;;
7074;SDS011;3578;51.568;6.932;2023-10-08T01:15:40;7.33;;;4.73;;
7074;SDS011;3578;51.568;6.932;2023-10-08T01:18:11;11.70;;;5.50;;
7074;SDS011;3578;51.568;6.932;2023-10-08T01:20:42;10.57;;;5.20;;
7074;SDS011;3578;51.568;6.932;2023-10-08T01:23:19;9.83;;;5.57;;
7074;SDS011;3578;51.568;6.932;2023-10-08T01:25:48;10.30;;;5.80;;
7074;SDS011;3578;51.568;6.932;2023-10-08T01:28:17;8.47;;;5.10;;
7074;SDS011;3578;51.568;6.932;2023-10-08T01:30:50;12.97;;;6.00;;
7074;SDS011;3578;51.568;6.932;2023-10-08T01:33:20;7.03;;;5.80;;
7074;SDS011;3578;51.568;6.932;2023-10-08T01:35:47;7.20;;;5.47;;
7074;SDS011;3578;51.568;6.932;2023-10-08T01:38:14;8.47;;;5.43;;
7074;SDS011;3578;51.568;6.932;2023-10-08T01:40:49;10.77;;;5.73;;
7074;SDS011;3578;51.568;6.932;2023-10-08T01:43:16;8.97;;;5.53;;
7074;SDS011;3578;51.568;6.932;2023-10-08T01:45:44;6.90;;;5.07;;
7074;SDS011;3578;51.568;6.932;2023-10-08T01:48:13;10.07;;;5.80;;
7074;SDS011;3578;51.568;6.932;2023-10-08T01:50:44;6.27;;;4.73;;
7074;SDS011;3578;51.568;6.932;2023-10-08T01:53:12;8.97;;;5.90;;
7074;SDS011;3578;51.568;6.932;2023-10-08T01:55:41;7.40;;;5.00;;
7074;SDS011;3578;51.568;6.932;2023-10-08T01:58:16;9.90;;;5.60;;
7074;SDS011;3578;51.568;6.932;2023-10-08T02:00:44;9.43;;;5.40;;
7074;SDS011;3578;51.568;6.932;2023-10-08T02:03:12;17.13;;;6.73;;
7074;SDS011;3578;51.568;6.932;2023-10-08T02:05:41;8.00;;;5.27;;
7074;SDS011;3578;51.568;6.932;2023-10-08T02:08:09;8.43;;;5.10;;
7074;SDS011;3578;51.568;6.932;2023-10-08T02:10:37;8.83;;;5.80;;
7074;SDS011;3578;51.568;6.932;2023-10-08T02:13:06;11.37;;;5.67;;
7074;SDS011;3578;51.568;6.932;2023-10-08T02:15:36;9.70;;;5.73;;
7074;SDS011;3578;51.568;6.932;2023-10-08T02:18:06;8.17;;;4.70;;
7074;SDS011;3578;51.568;6.932;2023-10-08T02:20:33;9.87;;;6.10;;
7074;SDS011;3578;51.568;6.932;2023-10-08T02:23:00;8.53;;;5.17;;
7074;SDS011;3578;51.568;6.932;2023-10-08T02:25:30;8.50;;;5.90;;
7074;SDS011;3578;51.568;6.932;2023-10-08T02:28:01;6.67;;;4.93;;
7074;SDS011;3578;51.568;6.932;2023-10-08T02:30:28;11.93;;;6.03;;
7074;SDS011;3578;51.568;6.932;2023-10-08T02:32:57;10.70;;;5.83;;
7074;SDS011;3578;51.568;6.932;2023-10-08T02:35:24;10.03;;;5.37;;
7074;SDS011;3578;51.568;6.932;2023-10-08T02:37:52;10.80;;;5.80;;
7074;SDS011;3578;51.568;6.932;2023-10-08T02:40:19;10.20;;;6.20;;
7074;SDS011;3578;51.568;6.932;2023-10-08T02:42:51;8.93;;;5.73;;
7074;SDS011;3578;51.568;6.932;2023-10-08T02:45:23;16.20;;;6.13;;
7074;SDS011;3578;51.568;6.932;2023-10-08T02:47:51;12.73;;;6.47;;
7074;SDS011;3578;51.568;6.932;2023-10-08T02:50:21;9.10;;;5.90;;
7074;SDS011;3578;51.568;6.932;2023-10-08T02:52:48;9.67;;;5.97;;
7074;SDS011;3578;51.568;6.932;2023-10-08T02:55:16;18.17;;;7.00;;
7074;SDS011;3578;51.568;6.932;2023-10-08T02:57:53;18.30;;;6.37;;
7074;SDS011;3578;51.568;6.932;2023-10-08T03:00:22;17.67;;;6.43;;
7074;SDS011;3578;51.568;6.932;2023-10-08T03:02:54;13.90;;;6.03;;
7074;SDS011;3578;51.568;6.932;2023-10-08T03:05:23;12.63;;;5.70;;
7074;SDS011;3578;51.568;6.932;2023-10-08T03:07:55;13.60;;;6.13;;
7074;SDS011;3578;51.568;6.932;2023-10-08T03:10:23;14.00;;;6.50;;
7074;SDS011;3578;51.568;6.932;2023-10-08T03:12:57;11.70;;;5.93;;
7074;SDS011;3578;51.568;6.932;2023-10-08T03:15:29;14.10;;;6.93;;
7074;SDS011;3578;51.568;6.932;2023-10-08T03:18:04;15.97;;;7.10;;
7074;SDS011;3578;51.568;6.932;2023-10-08T03:20:36;10.57;;;5.90;;
7074;SDS011;3578;51.568;6.932;2023-10-08T03:23:11;14.00;;;6.63;;
7074;SDS011;3578;51.568;6.932;2023-10-08T03:25:52;8.00;;;5.07;;
7074;SDS011;3578;51.568;6.932;2023-10-08T03:28:24;15.47;;;6.57;;
7074;SDS011;3578;51.568;6.932;2023-10-08T03:30:53;10.90;;;6.47;;
7074;SDS011;3578;51.568;6.932;2023-10-08T03:33:28;10.50;;;6.87;;
7074;SDS011;3578;51.568;6.932;2023-10-08T03:36:00;20.93;;;7.17;;
7074;SDS011;3578;51.568;6.932;2023-10-08T03:38:34;11.33;;;5.40;;
7074;SDS011;3578;51.568;6.932;2023-10-08T03:41:15;16.57;;;7.73;;
7074;SDS011;3578;51.568;6.932;2023-10-08T03:43:45;11.93;;;6.07;;
7074;SDS011;3578;51.568;6.932;2023-10-08T03:46:23;21.07;;;6.87;;
7074;SDS011;3578;51.568;6.932;2023-10-08T03:48:51;11.70;;;6.30;;
7074;SDS011;3578;51.568;6.932;2023-10-08T03:51:22;10.13;;;6.40;;
7074;SDS011;3578;51.568;6.932;2023-10-08T03:53:52;12.67;;;6.60;;
7074;SDS011;3578;51.568;6.932;2023-10-08T03:56:40;11.30;;;6.30;;
7074;SDS011;3578;51.568;6.932;2023-10-08T03:59:11;11.50;;;6.60;;
7074;SDS011;3578;51.568;6.932;2023-10-08T04:01:39;12.43;;;5.90;;
7074;SDS011;3578;51.568;6.932;2023-10-08T04:04:07;16.80;;;6.57;;
7074;SDS011;3578;51.568;6.932;2023-10-08T04:06:40;17.93;;;6.43;;
7074;SDS011;3578;51.568;6.932;2023-10-08T04:09:14;12.07;;;6.63;;
7074;SDS011;3578;51.568;6.932;2023-10-08T04:11:51;11.07;;;5.70;;
7074;SDS011;3578;51.568;6.932;2023-10-08T04:14:17;16.60;;;7.20;;
7074;SDS011;3578;51.568;6.932;2023-10-08T04:16:45;12.37;;;5.83;;
7074;SDS011;3578;51.568;6.932;2023-10-08T04:19:16;12.40;;;6.37;;
7074;SDS011;3578;51.568;6.932;2023-10-08T04:21:46;11.87;;;6.20;;
7074;SDS011;3578;51.568;6.932;2023-10-08T04:24:19;11.70;;;5.97;;
7074;SDS011;3578;51.568;6.932;2023-10-08T04:26:56;10.67;;;6.03;;
7074;SDS011;3578;51.568;6.932;2023-10-08T04:29:24;12.97;;;6.13;;
7074;SDS011;3578;51.568;6.932;2023-10-08T04:31:56;11.47;;;5.90;;
7074;SDS011;3578;51.568;6.932;2023-10-08T04:34:32;13.80;;;6.60;;
7074;SDS011;3578;51.568;6.932;2023-10-08T04:37:01;20.93;;;6.20;;
7074;SDS011;3578;51.568;6.932;2023-10-08T04:39:37;18.23;;;7.10;;
7074;SDS011;3578;51.568;6.932;2023-10-08T04:42:06;13.87;;;6.30;;
7074;SDS011;3578;51.568;6.932;2023-10-08T04:44:35;14.60;;;6.67;;
7074;SDS011;3578;51.568;6.932;2023-10-08T04:47:04;12.80;;;6.40;;
7074;SDS011;3578;51.568;6.932;2023-10-08T04:49:52;15.93;;;6.93;;
7074;SDS011;3578;51.568;6.932;2023-10-08T04:52:23;17.43;;;6.63;;
7074;SDS011;3578;51.568;6.932;2023-10-08T04:54:52;16.33;;;6.47;;
7074;SDS011;3578;51.568;6.932;2023-10-08T04:57:20;13.03;;;6.70;;
7074;SDS011;3578;51.568;6.932;2023-10-08T04:59:50;12.27;;;6.80;;
7074;SDS011;3578;51.568;6.932;2023-10-08T05:02:22;11.77;;;6.50;;
7074;SDS011;3578;51.568;6.932;2023-10-08T05:04:59;10.00;;;6.00;;
7074;SDS011;3578;51.568;6.932;2023-10-08T05:07:48;11.83;;;6.47;;
7074;SDS011;3578;51.568;6.932;2023-10-08T05:10:36;17.97;;;6.20;;
7074;SDS011;3578;51.568;6.932;2023-10-08T05:13:39;8.60;;;6.10;;
7074;SDS011;3578;51.568;6.932;2023-10-08T05:16:20;12.00;;;5.67;;
7074;SDS011;3578;51.568;6.932;2023-10-08T05:19:01;10.60;;;6.17;;
7074;SDS011;3578;51.568;6.932;2023-10-08T05:21:51;18.77;;;7.20;;
7074;SDS011;3578;51.568;6.932;2023-10-08T05:24:27;10.10;;;6.17;;
7074;SDS011;3578;51.568;6.932;2023-10-08T05:27:03;9.90;;;6.60;;
7074;SDS011;3578;51.568;6.932;2023-10-08T05:29:50;17.40;;;6.90;;
7074;SDS011;3578;51.568;6.932;2023-10-08T05:32:33;14.93;;;5.77;;
7074;SDS011;3578;51.568;6.932;2023-10-08T05:35:11;24.90;;;6.97;;
7074;SDS011;3578;51.568;6.932;2023-10-08T05:37:57;15.50;;;6.80;;
7074;SDS011;3578;51.568;6.932;2023-10-08T05:40:38;10.80;;;6.50;;
7074;SDS011;3578;51.568;6.932;2023-10-08T05:43:30;11.87;;;6.47;;
7074;SDS011;3578;51.568;6.932;2023-10-08T05:46:40;14.93;;;6.80;;
7074;SDS011;3578;51.568;6.932;2023-10-08T05:49:22;15.83;;;6.80;;
7074;SDS011;3578;51.568;6.932;2023-10-08T05:52:06;15.30;;;7.00;;
7074;SDS011;3578;51.568;6.932;2023-10-08T05:55:06;15.10;;;7.87;;
7074;SDS011;3578;51.568;6.932;2023-10-08T05:57:50;14.97;;;6.93;;
7074;SDS011;3578;51.568;6.932;2023-10-08T06:00:28;17.90;;;7.03;;
7074;SDS011;3578;51.568;6.932;2023-10-08T06:03:32;10.93;;;6.33;;
7074;SDS011;3578;51.568;6.932;2023-10-08T06:06:03;17.67;;;7.30;;
7074;SDS011;3578;51.568;6.932;2023-10-08T06:09:02;15.07;;;7.27;;
7074;SDS011;3578;51.568;6.932;2023-10-08T06:11:45;11.80;;;6.67;;
7074;SDS011;3578;51.568;6.932;2023-10-08T06:14:33;11.10;;;6.87;;
7074;SDS011;3578;51.568;6.932;2023-10-08T06:17:18;10.53;;;6.93;;
7074;SDS011;3578;51.568;6.932;2023-10-08T06:20:11;11.83;;;7.03;;
7074;SDS011;3578;51.568;6.932;2023-10-08T06:22:41;9.73;;;6.60;;
7074;SDS011;3578;51.568;6.932;2023-10-08T06:25:09;15.03;;;7.37;;
7074;SDS011;3578;51.568;6.932;2023-10-08T06:27:43;17.77;;;6.77;;
7074;SDS011;3578;51.568;6.932;2023-10-08T06:30:11;13.03;;;7.60;;
7074;SDS011;3578;51.568;6.932;2023-10-08T06:32:42;11.87;;;6.60;;
7074;SDS011;3578;51.568;6.932;2023-10-08T06:35:12;13.07;;;6.57;;
7074;SDS011;3578;51.568;6.932;2023-10-08T06:37:42;11.30;;;6.80;;
7074;SDS011;3578;51.568;6.932;2023-10-08T06:40:11;17.40;;;7.50;;
7074;SDS011;3578;51.568;6.932;2023-10-08T06:42:58;14.27;;;6.40;;
7074;SDS011;3578;51.568;6.932;2023-10-08T06:45:28;11.40;;;6.60;;
7074;SDS011;3578;51.568;6.932;2023-10-08T06:47:58;14.20;;;7.33;;
7074;SDS011;3578;51.568;6.932;2023-10-08T06:50:32;15.57;;;6.57;;
7074;SDS011;3578;51.568;6.932;2023-10-08T06:53:00;13.53;;;5.90;;
7074;SDS011;3578;51.568;6.932;2023-10-08T06:55:32;12.67;;;6.70;;
7074;SDS011;3578;51.568;6.932;2023-10-08T06:58:01;12.90;;;7.20;;
7074;SDS011;3578;51.568;6.932;2023-10-08T07:00:31;11.40;;;7.30;;
7074;SDS011;3578;51.568;6.932;2023-10-08T07:03:05;13.33;;;7.03;;
7074;SDS011;3578;51.568;6.932;2023-10-08T07:05:37;13.30;;;6.43;;
7074;SDS011;3578;51.568;6.932;2023-10-08T07:08:09;12.60;;;6.47;;
7074;SDS011;3578;51.568;6.932;2023-10-08T07:10:38;11.37;;;7.03;;
7074;SDS011;3578;51.568;6.932;2023-10-08T07:13:07;11.57;;;7.00;;
7074;SDS011;3578;51.568;6.932;2023-10-08T07:15:35;11.63;;;6.23;;
7074;SDS011;3578;51.568;6.932;2023-10-08T07:18:05;13.13;;;7.20;;
7074;SDS011;3578;51.568;6.932;2023-10-08T07:20:39;10.70;;;6.63;;
7074;SDS011;3578;51.568;6.932;2023-10-08T07:23:10;17.40;;;8.67;;
7074;SDS011;3578;51.568;6.932;2023-10-08T07:25:45;15.87;;;8.90;;
7074;SDS011;3578;51.568;6.932;2023-10-08T07:28:18;15.17;;;7.83;;
7074;SDS011;3578;51.568;6.932;2023-10-08T07:30:46;14.30;;;6.53;;
7074;SDS011;3578;51.568;6.932;2023-10-08T07:33:14;14.53;;;8.30;;
7074;SDS011;3578;51.568;6.932;2023-10-08T07:35:46;16.57;;;8.30;;
7074;SDS011;3578;51.568;6.932;2023-10-08T07:38:26;20.57;;;9.73;;
7074;SDS011;3578;51.568;6.932;2023-10-08T07:40:56;23.63;;;20.37;;
7074;SDS011;3578;51.568;6.932;2023-10-08T07:43:26;25.23;;;16.00;;
7074;SDS011;3578;51.568;6.932;2023-10-08T07:45:57;26.43;;;17.00;;
7074;SDS011;3578;51.568;6.932;2023-10-08T07:48:25;21.77;;;13.83;;
7074;SDS011;3578;51.568;6.932;2023-10-08T07:50:56;19.07;;;14.50;;
7074;SDS011;3578;51.568;6.932;2023-10-08T07:53:23;17.47;;;11.30;;
7074;SDS011;3578;51.568;6.932;2023-10-08T07:56:02;14.50;;;10.90;;
7074;SDS011;3578;51.568;6.932;2023-10-08T07:58:33;16.60;;;10.30;;
7074;SDS011;3578;51.568;6.932;2023-10-08T08:01:02;20.93;;;9.17;;
7074;SDS011;3578;51.568;6.932;2023-10-08T08:03:31;14.23;;;8.87;;
7074;SDS011;3578;51.568;6.932;2023-10-08T08:06:02;11.90;;;7.37;;
7074;SDS011;3578;51.568;6.932;2023-10-08T08:08:32;9.90;;;7.00;;
7074;SDS011;3578;51.568;6.932;2023-10-08T08:11:01;13.43;;;6.27;;
7074;SDS011;3578;51.568;6.932;2023-10-08T08:13:32;7.00;;;5.63;;
7074;SDS011;3578;51.568;6.932;2023-10-08T08:16:00;8.63;;;5.63;;
7074;SDS011;3578;51.568;6.932;2023-10-08T08:18:41;7.50;;;5.33;;
7074;SDS011;3578;51.568;6.932;2023-10-08T08:21:10;7.83;;;5.40;;
7074;SDS011;3578;51.568;6.932;2023-10-08T08:23:41;12.73;;;7.80;;
7074;SDS011;3578;51.568;6.932;2023-10-08T08:26:13;10.03;;;6.97;;
7074;SDS011;3578;51.568;6.932;2023-10-08T08:28:52;9.30;;;7.50;;
7074;SDS011;3578;51.568;6.932;2023-10-08T08:31:24;8.10;;;7.27;;
7074;SDS011;3578;51.568;6.932;2023-10-08T08:33:53;9.27;;;6.27;;
7074;SDS011;3578;51.568;6.932;2023-10-08T08:36:23;6.57;;;4.93;;
7074;SDS011;3578;51.568;6.932;2023-10-08T08:38:50;11.33;;;4.40;;
7074;SDS011;3578;51.568;6.932;2023-10-08T08:41:18;4.50;;;3.07;;
7074;SDS011;3578;51.568;6.932;2023-10-08T08:43:47;3.23;;;2.47;;
7074;SDS011;3578;51.568;6.932;2023-10-08T08:46:21;5.70;;;2.47;;
7074;SDS011;3578;51.568;6.932;2023-10-08T08:48:57;2.20;;;2.00;;
7074;SDS011;3578;51.568;6.932;2023-10-08T08:51:30;4.47;;;2.57;;
7074;SDS011;3578;51.568;6.932;2023-10-08T08:53:58;2.83;;;1.90;;
7074;SDS011;3578;51.568;6.932;2023-10-08T08:56:25;3.30;;;1.50;;
7074;SDS011;3578;51.568;6.932;2023-10-08T08:58:55;1.63;;;1.37;;
7074;SDS011;3578;51.568;6.932;2023-10-08T09:01:24;4.00;;;1.40;;
7074;SDS011;3578;51.568;6.932;2023-10-08T09:03:51;1.93;;;1.53;;
7074;SDS011;3578;51.568;6.932;2023-10-08T09:06:27;2.50;;;2.17;;
7074;SDS011;3578;51.568;6.932;2023-10-08T09:08:55;3.37;;;1.63;;
7074;SDS011;3578;51.568;6.932;2023-10-08T09:11:39;10.70;;;3.03;;
7074;SDS011;3578;51.568;6.932;2023-10-08T09:14:08;5.10;;;2.57;;
7074;SDS011;3578;51.568;6.932;2023-10-08T09:16:36;10.73;;;3.03;;
7074;SDS011;3578;51.568;6.932;2023-10-08T09:19:03;8.87;;;2.80;;
7074;SDS011;3578;51.568;6.932;2023-10-08T09:21:36;4.83;;;2.70;;
7074;SDS011;3578;51.568;6.932;2023-10-08T09:24:05;16.43;;;3.50;;
7074;SDS011;3578;51.568;6.932;2023-10-08T09:26:35;4.27;;;3.07;;
7074;SDS011;3578;51.568;6.932;2023-10-08T09:29:05;5.83;;;3.17;;
7074;SDS011;3578;51.568;6.932;2023-10-08T09:31:33;3.30;;;2.90;;
7074;SDS011;3578;51.568;6.932;2023-10-08T09:34:01;12.10;;;2.67;;
7074;SDS011;3578;51.568;6.932;2023-10-08T09:36:30;3.90;;;2.30;;
7074;SDS011;3578;51.568;6.932;2023-10-08T09:38:59;2.33;;;2.23;;
7074;SDS011;3578;51.568;6.932;2023-10-08T09:41:31;2.30;;;2.10;;
7074;SDS011;3578;51.568;6.932;2023-10-08T09:43:59;4.03;;;2.03;;
7074;SDS011;3578;51.568;6.932;2023-10-08T09:46:29;15.97;;;2.17;;
7074;SDS011;3578;51.568;6.932;2023-10-08T09:49:00;4.10;;;1.20;;
7074;SDS011;3578;51.568;6.932;2023-10-08T09:51:31;14.50;;;1.90;;
7074;SDS011;3578;51.568;6.932;2023-10-08T09:54:05;6.20;;;1.50;;
7074;SDS011;3578;51.568;6.932;2023-10-08T09:56:40;4.17;;;1.17;;
7074;SDS011;3578;51.568;6.932;2023-10-08T09:59:09;16.93;;;1.70;;
7074;SDS011;3578;51.568;6.932;2023-10-08T10:01:37;1.30;;;1.20;;
7074;SDS011;3578;51.568;6.932;2023-10-08T10:04:08;1.67;;;1.57;;
7074;SDS011;3578;51.568;6.932;2023-10-08T10:06:35;4.80;;;1.43;;
7074;SDS011;3578;51.568;6.932;2023-10-08T10:09:04;6.90;;;1.90;;
7074;SDS011;3578;51.568;6.932;2023-10-08T10:11:35;6.00;;;2.20;;
7074;SDS011;3578;51.568;6.932;2023-10-08T10:14:03;4.30;;;1.90;;
7074;SDS011;3578;51.568;6.932;2023-10-08T10:16:31;5.10;;;2.37;;
7074;SDS011;3578;51.568;6.932;2023-10-08T10:19:02;26.83;;;3.80;;
7074;SDS011;3578;51.568;6.932;2023-10-08T10:21:30;8.80;;;3.10;;
7074;SDS011;3578;51.568;6.932;2023-10-08T10:23:58;8.93;;;3.23;;
7074;SDS011;3578;51.568;6.932;2023-10-08T10:26:28;12.60;;;3.47;;
7074;SDS011;3578;51.568;6.932;2023-10-08T10:31:52;14.43;;;3.60;;
7074;SDS011;3578;51.568;6.932;2023-10-08T10:34:22;22.03;;;4.57;;
7074;SDS011;3578;51.568;6.932;2023-10-08T10:36:52;11.13;;;4.97;;
7074;SDS011;3578;51.568;6.932;2023-10-08T10:39:27;9.43;;;4.43;;
7074;SDS011;3578;51.568;6.932;2023-10-08T10:41:58;11.00;;;5.83;;
7074;SDS011;3578;51.568;6.932;2023-10-08T10:44:29;11.07;;;6.50;;
7074;SDS011;3578;51.568;6.932;2023-10-08T10:46:58;15.47;;;6.27;;
7074;SDS011;3578;51.568;6.932;2023-10-08T10:49:40;8.07;;;6.30;;
7074;SDS011;3578;51.568;6.932;2023-10-08T10:52:17;7.50;;;6.27;;
7074;SDS011;3578;51.568;6.932;2023-10-08T10:54:56;10.17;;;8.03;;
7074;SDS011;3578;51.568;6.932;2023-10-08T10:57:43;7.53;;;6.83;;
7074;SDS011;3578;51.568;6.932;2023-10-08T11:00:22;14.63;;;7.50;;
7074;SDS011;3578;51.568;6.932;2023-10-08T11:03:07;14.73;;;7.60;;
7074;SDS011;3578;51.568;6.932;2023-10-08T11:05:49;9.50;;;7.30;;
7074;SDS011;3578;51.568;6.932;2023-10-08T11:08:24;13.13;;;8.33;;
7074;SDS011;3578;51.568;6.932;2023-10-08T11:10:59;8.57;;;7.57;;
7074;SDS011;3578;51.568;6.932;2023-10-08T11:13:31;10.70;;;8.37;;
7074;SDS011;3578;51.568;6.932;2023-10-08T11:16:05;7.07;;;6.17;;
7074;SDS011;3578;51.568;6.932;2023-10-08T11:18:34;7.00;;;5.33;;
7074;SDS011;3578;51.568;6.932;2023-10-08T11:21:07;5.87;;;5.37;;
7074;SDS011;3578;51.568;6.932;2023-10-08T11:23:44;4.43;;;4.03;;
7074;SDS011;3578;51.568;6.932;2023-10-08T11:26:17;3.83;;;3.27;;
7074;SDS011;3578;51.568;6.932;2023-10-08T11:28:46;5.70;;;3.93;;
7074;SDS011;3578;51.568;6.932;2023-10-08T11:31:15;3.30;;;2.80;;
7074;SDS011;3578;51.568;6.932;2023-10-08T11:33:45;3.33;;;2.23;;
7074;SDS011;3578;51.568;6.932;2023-10-08T11:36:19;2.93;;;2.73;;
7074;SDS011;3578;51.568;6.932;2023-10-08T11:38:52;3.53;;;2.83;;
7074;SDS011;3578;51.568;6.932;2023-10-08T11:41:26;5.20;;;2.97;;
7074;SDS011;3578;51.568;6.932;2023-10-08T11:43:55;4.53;;;3.03;;
7074;SDS011;3578;51.568;6.932;2023-10-08T11:46:25;7.40;;;3.20;;
7074;SDS011;3578;51.568;6.932;2023-10-08T11:48:58;2.83;;;2.63;;
7074;SDS011;3578;51.568;6.932;2023-10-08T11:51:29;6.47;;;2.70;;
7074;SDS011;3578;51.568;6.932;2023-10-08T11:53:58;4.77;;;2.50;;
7074;SDS011;3578;51.568;6.932;2023-10-08T11:56:26;2.93;;;2.63;;
7074;SDS011;3578;51.568;6.932;2023-10-08T11:58:54;2.57;;;2.37;;
7074;SDS011;3578;51.568;6.932;2023-10-08T12:01:22;4.00;;;2.47;;
7074;SDS011;3578;51.568;6.932;2023-10-08T12:03:50;4.50;;;2.07;;
7074;SDS011;3578;51.568;6.932;2023-10-08T12:06:17;12.30;;;3.00;;
7074;SDS011;3578;51.568;6.932;2023-10-08T12:08:46;2.30;;;1.57;;
7074;SDS011;3578;51.568;6.932;2023-10-08T12:11:18;2.33;;;1.50;;
7074;SDS011;3578;51.568;6.932;2023-10-08T12:13:48;5.00;;;1.77;;
7074;SDS011;3578;51.568;6.932;2023-10-08T12:16:15;3.83;;;1.47;;
7074;SDS011;3578;51.568;6.932;2023-10-08T12:18:48;1.43;;;1.20;;
7074;SDS011;3578;51.568;6.932;2023-10-08T12:21:23;2.80;;;1.73;;
7074;SDS011;3578;51.568;6.932;2023-10-08T12:23:50;6.37;;;1.20;;
7074;SDS011;3578;51.568;6.932;2023-10-08T12:26:20;2.40;;;1.20;;
7074;SDS011;3578;51.568;6.932;2023-10-08T12:28:47;1.20;;;1.10;;
7074;SDS011;3578;51.568;6.932;2023-10-08T12:31:14;7.30;;;1.30;;
7074;SDS011;3578;51.568;6.932;2023-10-08T12:33:47;2.50;;;1.23;;
7074;SDS011;3578;51.568;6.932;2023-10-08T12:36:19;3.30;;;1.50;;
7074;SDS011;3578;51.568;6.932;2023-10-08T12:38:48;1.50;;;1.30;;
7074;SDS011;3578;51.568;6.932;2023-10-08T12:41:22;8.00;;;2.47;;
7074;SDS011;3578;51.568;6.932;2023-10-08T12:43:50;3.87;;;1.67;;
7074;SDS011;3578;51.568;6.932;2023-10-08T12:46:18;4.93;;;1.80;;
7074;SDS011;3578;51.568;6.932;2023-10-08T12:48:49;3.53;;;2.07;;
7074;SDS011;3578;51.568;6.932;2023-10-08T12:51:20;3.63;;;2.10;;
7074;SDS011;3578;51.568;6.932;2023-10-08T12:53:49;2.00;;;1.77;;
7074;SDS011;3578;51.568;6.932;2023-10-08T12:56:23;2.13;;;2.03;;
7074;SDS011;3578;51.568;6.932;2023-10-08T12:58:56;5.47;;;1.90;;
7074;SDS011;3578;51.568;6.932;2023-10-08T13:01:24;2.20;;;1.20;;
7074;SDS011;3578;51.568;6.932;2023-10-08T13:03:54;1.30;;;1.17;;
7074;SDS011;3578;51.568;6.932;2023-10-08T13:06:27;2.93;;;1.40;;
7074;SDS011;3578;51.568;6.932;2023-10-08T13:08:55;4.50;;;1.57;;
7074;SDS011;3578;51.568;6.932;2023-10-08T13:11:23;2.00;;;1.40;;
7074;SDS011;3578;51.568;6.932;2023-10-08T13:13:54;5.40;;;1.40;;
7074;SDS011;3578;51.568;6.932;2023-10-08T13:16:23;3.77;;;1.33;;
7074;SDS011;3578;51.568;6.932;2023-10-08T13:18:56;2.00;;;1.30;;
7074;SDS011;3578;51.568;6.932;2023-10-08T13:21:23;3.23;;;1.80;;
7074;SDS011;3578;51.568;6.932;2023-10-08T13:23:52;1.80;;;1.23;;
7074;SDS011;3578;51.568;6.932;2023-10-08T13:26:22;12.77;;;1.63;;
7074;SDS011;3578;51.568;6.932;2023-10-08T13:28:49;2.17;;;1.27;;
7074;SDS011;3578;51.568;6.932;2023-10-08T13:31:17;1.90;;;1.20;;
7074;SDS011;3578;51.568;6.932;2023-10-08T13:33:44;8.07;;;1.63;;
7074;SDS011;3578;51.568;6.932;2023-10-08T13:36:13;4.97;;;1.70;;
7074;SDS011;3578;51.568;6.932;2023-10-08T13:38:42;17.73;;;1.63;;
7074;SDS011;3578;51.568;6.932;2023-10-08T13:41:12;7.00;;;1.77;;
7074;SDS011;3578;51.568;6.932;2023-10-08T13:43:43;1.50;;;1.40;;
7074;SDS011;3578;51.568;6.932;2023-10-08T13:46:12;2.50;;;1.80;;
7074;SDS011;3578;51.568;6.932;2023-10-08T13:48:42;2.20;;;1.53;;
7074;SDS011;3578;51.568;6.932;2023-10-08T13:51:13;4.37;;;1.80;;
7074;SDS011;3578;51.568;6.932;2023-10-08T13:53:47;3.90;;;1.80;;
7074;SDS011;3578;51.568;6.932;2023-10-08T13:56:19;3.43;;;1.40;;
7074;SDS011;3578;51.568;6.932;2023-10-08T13:58:51;8.47;;;1.77;;
7074;SDS011;3578;51.568;6.932;2023-10-08T14:01:28;3.43;;;1.60;;
7074;SDS011;3578;51.568;6.932;2023-10-08T14:03:58;4.30;;;1.90;;
7074;SDS011;3578;51.568;6.932;2023-10-08T14:06:31;5.67;;;1.70;;
7074;SDS011;3578;51.568;6.932;2023-10-08T14:08:59;5.73;;;1.67;;
7074;SDS011;3578;51.568;6.932;2023-10-08T14:11:28;6.53;;;1.70;;
7074;SDS011;3578;51.568;6.932;2023-10-08T14:13:56;4.97;;;1.63;;
7074;SDS011;3578;51.568;6.932;2023-10-08T14:16:24;2.53;;;1.73;;
7074;SDS011;3578;51.568;6.932;2023-10-08T14:18:54;8.17;;;1.80;;
7074;SDS011;3578;51.568;6.932;2023-10-08T14:21:24;15.03;;;2.30;;
7074;SDS011;3578;51.568;6.932;2023-10-08T14:23:55;21.33;;;3.50;;
7074;SDS011;3578;51.568;6.932;2023-10-08T14:26:29;9.37;;;2.83;;
7074;SDS011;3578;51.568;6.932;2023-10-08T14:29:01;15.00;;;2.60;;
7074;SDS011;3578;51.568;6.932;2023-10-08T14:31:32;8.50;;;2.50;;
7074;SDS011;3578;51.568;6.932;2023-10-08T14:34:04;6.23;;;2.80;;
7074;SDS011;3578;51.568;6.932;2023-10-08T14:36:44;22.30;;;2.67;;
7074;SDS011;3578;51.568;6.932;2023-10-08T14:39:28;5.67;;;2.30;;
7074;SDS011;3578;51.568;6.932;2023-10-08T14:42:11;7.93;;;1.97;;
7074;SDS011;3578;51.568;6.932;2023-10-08T14:44:55;5.90;;;2.10;;
7074;SDS011;3578;51.568;6.932;2023-10-08T14:47:23;6.77;;;1.80;;
7074;SDS011;3578;51.568;6.932;2023-10-08T14:49:50;5.70;;;1.83;;
7074;SDS011;3578;51.568;6.932;2023-10-08T14:52:17;5.83;;;1.90;;
7074;SDS011;3578;51.568;6.932;2023-10-08T14:54:44;6.50;;;1.97;;
7074;SDS011;3578;51.568;6.932;2023-10-08T14:57:13;39.70;;;3.57;;
7074;SDS011;3578;51.568;6.932;2023-10-08T14:59:40;26.40;;;3.80;;
7074;SDS011;3578;51.568;6.932;2023-10-08T15:02:07;29.73;;;3.87;;
7074;SDS011;3578;51.568;6.932;2023-10-08T15:04:35;16.13;;;3.07;;
7074;SDS011;3578;51.568;6.932;2023-10-08T15:07:04;14.83;;;2.53;;
7074;SDS011;3578;51.568;6.932;2023-10-08T15:09:33;28.90;;;2.97;;
7074;SDS011;3578;51.568;6.932;2023-10-08T15:12:01;15.13;;;3.23;;
7074;SDS011;3578;51.568;6.932;2023-10-08T15:14:29;12.20;;;2.10;;
7074;SDS011;3578;51.568;6.932;2023-10-08T15:16:56;11.97;;;2.30;;
7074;SDS011;3578;51.568;6.932;2023-10-08T15:19:23;17.57;;;3.20;;
7074;SDS011;3578;51.568;6.932;2023-10-08T15:21:51;13.17;;;3.63;;
7074;SDS011;3578;51.568;6.932;2023-10-08T15:24:18;24.63;;;4.20;;
7074;SDS011;3578;51.568;6.932;2023-10-08T15:26:46;18.43;;;3.33;;
7074;SDS011;3578;51.568;6.932;2023-10-08T15:29:13;10.23;;;2.50;;
7074;SDS011;3578;51.568;6.932;2023-10-08T15:31:42;8.17;;;2.50;;
7074;SDS011;3578;51.568;6.932;2023-10-08T15:34:10;3.03;;;1.77;;
7074;SDS011;3578;51.568;6.932;2023-10-08T15:36:38;8.63;;;2.47;;
7074;SDS011;3578;51.568;6.932;2023-10-08T15:39:05;5.30;;;2.20;;
7074;SDS011;3578;51.568;6.932;2023-10-08T15:41:34;3.43;;;2.00;;